sensor_id;sensor_type;location;lat;lon;timestamp;P1;durP1;ratioP1;P2;durP2;ratioP2
48897;SDS011;34713;50.038;20.000;2023-11-21T00:02:25;8.50;;;4.20;;
48897;SDS011;34713;50.038;20.000;2023-11-21T00:04:53;6.60;;;4.00;;
48897;SDS011;34713;50.038;20.000;2023-11-21T00:07:20;6.10;;;4.10;;
48897;SDS011;34713;50.038;20.000;2023-11-21T00:09:47;9.90;;;4.80;;
48897;SDS011;34713;50.038;20.000;2023-11-21T00:12:14;9.70;;;4.80;;
48897;SDS011;34713;50.038;20.000;2023-11-21T00:14:41;7.50;;;4.30;;
48897;SDS011;34713;50.038;20.000;2023-11-21T00:17:07;9.20;;;4.00;;
48897;SDS011;34713;50.038;20.000;2023-11-21T00:19:34;7.60;;;3.90;;
48897;SDS011;34713;50.038;20.000;2023-11-21T00:22:01;6.40;;;4.00;;
48897;SDS011;34713;50.038;20.000;2023-11-21T00:24:27;6.40;;;3.90;;
48897;SDS011;34713;50.038;20.000;2023-11-21T00:26:54;6.20;;;3.80;;
48897;SDS011;34713;50.038;20.000;2023-11-21T00:29:20;7.80;;;4.10;;
48897;SDS011;34713;50.038;20.000;2023-11-21T00:31:47;5.40;;;3.60;;
48897;SDS011;34713;50.038;20.000;2023-11-21T00:34:13;6.00;;;2.90;;
48897;SDS011;34713;50.038;20.000;2023-11-21T00:36:40;5.80;;;3.40;;
48897;SDS011;34713;50.038;20.000;2023-11-21T00:39:07;5.70;;;3.30;;
48897;SDS011;34713;50.038;20.000;2023-11-21T00:41:33;6.00;;;3.40;;
48897;SDS011;34713;50.038;20.000;2023-11-21T00:44:00;5.10;;;3.10;;
48897;SDS011;34713;50.038;20.000;2023-11-21T00:46:27;5.80;;;3.20;;
48897;SDS011;34713;50.038;20.000;2023-11-21T00:48:55;6.80;;;3.10;;
48897;SDS011;34713;50.038;20.000;2023-11-21T00:51:21;5.60;;;3.10;;
48897;SDS011;34713;50.038;20.000;2023-11-21T00:53:48;4.20;;;2.70;;
48897;SDS011;34713;50.038;20.000;2023-11-21T00:56:15;4.80;;;3.00;;
48897;SDS011;34713;50.038;20.000;2023-11-21T00:58:41;5.70;;;3.10;;
48897;SDS011;34713;50.038;20.000;2023-11-21T01:01:16;6.90;;;3.20;;
48897;SDS011;34713;50.038;20.000;2023-11-21T01:03:42;6.00;;;2.90;;
48897;SDS011;34713;50.038;20.000;2023-11-21T01:06:09;7.00;;;3.20;;
48897;SDS011;34713;50.038;20.000;2023-11-21T01:08:36;5.20;;;3.00;;
48897;SDS011;34713;50.038;20.000;2023-11-21T01:11:02;4.80;;;3.10;;
48897;SDS011;34713;50.038;20.000;2023-11-21T01:13:29;5.20;;;3.50;;
48897;SDS011;34713;50.038;20.000;2023-11-21T01:15:56;5.40;;;3.60;;
48897;SDS011;34713;50.038;20.000;2023-11-21T01:18:22;5.60;;;3.60;;
48897;SDS011;34713;50.038;20.000;2023-11-21T01:20:51;5.20;;;2.90;;
48897;SDS011;34713;50.038;20.000;2023-11-21T01:23:19;6.20;;;3.50;;
48897;SDS011;34713;50.038;20.000;2023-11-21T01:25:46;5.90;;;3.60;;
48897;SDS011;34713;50.038;20.000;2023-11-21T01:28:13;6.00;;;3.20;;
48897;SDS011;34713;50.038;20.000;2023-11-21T01:30:39;5.70;;;2.90;;
48897;SDS011;34713;50.038;20.000;2023-11-21T01:33:06;5.90;;;3.50;;
48897;SDS011;34713;50.038;20.000;2023-11-21T01:35:32;4.90;;;2.70;;
48897;SDS011;34713;50.038;20.000;2023-11-21T01:38:00;8.60;;;3.70;;
48897;SDS011;34713;50.038;20.000;2023-11-21T01:40:26;6.90;;;3.10;;
48897;SDS011;34713;50.038;20.000;2023-11-21T01:42:55;5.20;;;3.40;;
48897;SDS011;34713;50.038;20.000;2023-11-21T01:45:22;4.40;;;3.10;;
48897;SDS011;34713;50.038;20.000;2023-11-21T01:47:48;7.80;;;3.60;;
48897;SDS011;34713;50.038;20.000;2023-11-21T01:50:15;8.40;;;4.00;;
48897;SDS011;34713;50.038;20.000;2023-11-21T01:52:44;6.20;;;3.80;;
48897;SDS011;34713;50.038;20.000;2023-11-21T01:55:11;7.50;;;4.10;;
48897;SDS011;34713;50.038;20.000;2023-11-21T01:57:41;5.40;;;3.30;;
48897;SDS011;34713;50.038;20.000;2023-11-21T02:00:07;6.30;;;3.60;;
48897;SDS011;34713;50.038;20.000;2023-11-21T02:02:46;5.70;;;3.10;;
48897;SDS011;34713;50.038;20.000;2023-11-21T02:05:14;4.30;;;3.00;;
48897;SDS011;34713;50.038;20.000;2023-11-21T02:07:43;6.50;;;3.40;;
48897;SDS011;34713;50.038;20.000;2023-11-21T02:10:10;4.60;;;2.90;;
48897;SDS011;34713;50.038;20.000;2023-11-21T02:12:41;4.40;;;3.50;;
48897;SDS011;34713;50.038;20.000;2023-11-21T02:15:09;6.80;;;3.40;;
48897;SDS011;34713;50.038;20.000;2023-11-21T02:17:41;4.70;;;2.60;;
48897;SDS011;34713;50.038;20.000;2023-11-21T02:20:13;5.90;;;3.40;;
48897;SDS011;34713;50.038;20.000;2023-11-21T02:22:48;6.30;;;3.00;;
48897;SDS011;34713;50.038;20.000;2023-11-21T02:25:16;7.20;;;3.10;;
48897;SDS011;34713;50.038;20.000;2023-11-21T02:27:42;5.90;;;3.20;;
48897;SDS011;34713;50.038;20.000;2023-11-21T02:30:09;6.20;;;3.50;;
48897;SDS011;34713;50.038;20.000;2023-11-21T02:32:39;5.50;;;3.20;;
48897;SDS011;34713;50.038;20.000;2023-11-21T02:35:09;7.30;;;3.50;;
48897;SDS011;34713;50.038;20.000;2023-11-21T02:37:35;7.40;;;3.70;;
48897;SDS011;34713;50.038;20.000;2023-11-21T02:40:02;8.10;;;3.80;;
48897;SDS011;34713;50.038;20.000;2023-11-21T02:42:35;7.30;;;3.20;;
48897;SDS011;34713;50.038;20.000;2023-11-21T02:45:02;6.30;;;3.40;;
48897;SDS011;34713;50.038;20.000;2023-11-21T02:47:29;5.20;;;2.90;;
48897;SDS011;34713;50.038;20.000;2023-11-21T02:49:55;5.90;;;3.60;;
48897;SDS011;34713;50.038;20.000;2023-11-21T02:52:22;8.00;;;3.70;;
48897;SDS011;34713;50.038;20.000;2023-11-21T02:54:49;5.20;;;3.00;;
48897;SDS011;34713;50.038;20.000;2023-11-21T02:57:15;6.30;;;3.10;;
48897;SDS011;34713;50.038;20.000;2023-11-21T02:59:42;6.60;;;3.60;;
48897;SDS011;34713;50.038;20.000;2023-11-21T03:02:08;8.60;;;3.30;;
48897;SDS011;34713;50.038;20.000;2023-11-21T03:04:35;6.10;;;3.40;;
48897;SDS011;34713;50.038;20.000;2023-11-21T03:07:01;7.80;;;3.70;;
48897;SDS011;34713;50.038;20.000;2023-11-21T03:09:28;6.50;;;3.50;;
48897;SDS011;34713;50.038;20.000;2023-11-21T03:11:54;17.70;;;4.10;;
48897;SDS011;34713;50.038;20.000;2023-11-21T03:14:21;6.30;;;3.60;;
48897;SDS011;34713;50.038;20.000;2023-11-21T03:16:47;6.80;;;3.40;;
48897;SDS011;34713;50.038;20.000;2023-11-21T03:19:15;7.40;;;3.50;;
48897;SDS011;34713;50.038;20.000;2023-11-21T03:21:42;6.00;;;3.80;;
48897;SDS011;34713;50.038;20.000;2023-11-21T03:24:08;6.00;;;3.10;;
48897;SDS011;34713;50.038;20.000;2023-11-21T03:26:35;7.50;;;3.20;;
48897;SDS011;34713;50.038;20.000;2023-11-21T03:29:04;8.00;;;3.40;;
48897;SDS011;34713;50.038;20.000;2023-11-21T03:31:31;9.40;;;3.90;;
48897;SDS011;34713;50.038;20.000;2023-11-21T03:33:57;7.10;;;3.30;;
48897;SDS011;34713;50.038;20.000;2023-11-21T03:36:24;6.20;;;3.60;;
48897;SDS011;34713;50.038;20.000;2023-11-21T03:38:51;5.70;;;3.40;;
48897;SDS011;34713;50.038;20.000;2023-11-21T03:41:18;5.40;;;3.10;;
48897;SDS011;34713;50.038;20.000;2023-11-21T03:43:44;5.20;;;3.10;;
48897;SDS011;34713;50.038;20.000;2023-11-21T03:46:11;6.70;;;3.40;;
48897;SDS011;34713;50.038;20.000;2023-11-21T03:48:38;5.30;;;3.10;;
48897;SDS011;34713;50.038;20.000;2023-11-21T03:51:05;6.30;;;3.10;;
48897;SDS011;34713;50.038;20.000;2023-11-21T03:53:32;6.80;;;2.70;;
48897;SDS011;34713;50.038;20.000;2023-11-21T03:55:58;6.10;;;2.90;;
48897;SDS011;34713;50.038;20.000;2023-11-21T03:58:25;6.30;;;3.00;;
48897;SDS011;34713;50.038;20.000;2023-11-21T04:00:51;8.20;;;3.80;;
48897;SDS011;34713;50.038;20.000;2023-11-21T04:03:18;7.70;;;3.30;;
48897;SDS011;34713;50.038;20.000;2023-11-21T04:05:45;5.90;;;2.90;;
48897;SDS011;34713;50.038;20.000;2023-11-21T04:08:12;5.10;;;2.80;;
48897;SDS011;34713;50.038;20.000;2023-11-21T04:10:38;5.80;;;2.80;;
48897;SDS011;34713;50.038;20.000;2023-11-21T04:13:05;4.70;;;2.70;;
48897;SDS011;34713;50.038;20.000;2023-11-21T04:15:32;4.00;;;2.50;;
48897;SDS011;34713;50.038;20.000;2023-11-21T04:17:59;4.90;;;2.70;;
48897;SDS011;34713;50.038;20.000;2023-11-21T04:20:25;5.30;;;2.70;;
48897;SDS011;34713;50.038;20.000;2023-11-21T04:22:52;6.80;;;3.10;;
48897;SDS011;34713;50.038;20.000;2023-11-21T04:25:18;5.10;;;3.20;;
48897;SDS011;34713;50.038;20.000;2023-11-21T04:27:45;4.90;;;2.70;;
48897;SDS011;34713;50.038;20.000;2023-11-21T04:30:12;8.90;;;3.00;;
48897;SDS011;34713;50.038;20.000;2023-11-21T04:32:39;8.70;;;3.70;;
48897;SDS011;34713;50.038;20.000;2023-11-21T04:35:06;8.30;;;3.80;;
48897;SDS011;34713;50.038;20.000;2023-11-21T04:37:34;7.60;;;3.60;;
48897;SDS011;34713;50.038;20.000;2023-11-21T04:40:01;7.20;;;3.30;;
48897;SDS011;34713;50.038;20.000;2023-11-21T04:42:27;7.10;;;4.00;;
48897;SDS011;34713;50.038;20.000;2023-11-21T04:44:55;7.80;;;4.20;;
48897;SDS011;34713;50.038;20.000;2023-11-21T04:47:21;5.30;;;3.10;;
48897;SDS011;34713;50.038;20.000;2023-11-21T04:49:48;6.20;;;3.60;;
48897;SDS011;34713;50.038;20.000;2023-11-21T04:52:14;6.40;;;3.40;;
48897;SDS011;34713;50.038;20.000;2023-11-21T04:54:41;5.30;;;3.10;;
48897;SDS011;34713;50.038;20.000;2023-11-21T04:57:07;7.70;;;3.70;;
48897;SDS011;34713;50.038;20.000;2023-11-21T04:59:34;5.20;;;3.10;;
48897;SDS011;34713;50.038;20.000;2023-11-21T05:02:01;5.50;;;3.70;;
48897;SDS011;34713;50.038;20.000;2023-11-21T05:04:28;6.90;;;3.80;;
48897;SDS011;34713;50.038;20.000;2023-11-21T05:06:55;6.70;;;4.10;;
48897;SDS011;34713;50.038;20.000;2023-11-21T05:09:21;6.30;;;3.70;;
48897;SDS011;34713;50.038;20.000;2023-11-21T05:11:48;8.10;;;3.80;;
48897;SDS011;34713;50.038;20.000;2023-11-21T05:14:15;6.80;;;3.70;;
48897;SDS011;34713;50.038;20.000;2023-11-21T05:16:41;5.90;;;3.60;;
48897;SDS011;34713;50.038;20.000;2023-11-21T05:19:08;5.30;;;3.50;;
48897;SDS011;34713;50.038;20.000;2023-11-21T05:21:35;7.30;;;3.10;;
48897;SDS011;34713;50.038;20.000;2023-11-21T05:24:02;7.90;;;4.50;;
48897;SDS011;34713;50.038;20.000;2023-11-21T05:26:29;7.10;;;4.00;;
48897;SDS011;34713;50.038;20.000;2023-11-21T05:28:55;8.70;;;3.70;;
48897;SDS011;34713;50.038;20.000;2023-11-21T05:31:22;7.00;;;4.20;;
48897;SDS011;34713;50.038;20.000;2023-11-21T05:33:48;6.70;;;4.40;;
48897;SDS011;34713;50.038;20.000;2023-11-21T05:36:15;6.70;;;4.40;;
48897;SDS011;34713;50.038;20.000;2023-11-21T05:38:41;7.70;;;4.00;;
48897;SDS011;34713;50.038;20.000;2023-11-21T05:41:08;8.40;;;3.90;;
48897;SDS011;34713;50.038;20.000;2023-11-21T05:43:37;6.00;;;4.10;;
48897;SDS011;34713;50.038;20.000;2023-11-21T05:46:03;6.70;;;4.10;;
48897;SDS011;34713;50.038;20.000;2023-11-21T05:48:30;6.90;;;4.10;;
48897;SDS011;34713;50.038;20.000;2023-11-21T05:50:57;7.50;;;3.60;;
48897;SDS011;34713;50.038;20.000;2023-11-21T05:53:25;6.10;;;3.90;;
48897;SDS011;34713;50.038;20.000;2023-11-21T05:55:51;6.90;;;4.00;;
48897;SDS011;34713;50.038;20.000;2023-11-21T05:58:18;9.10;;;4.10;;
48897;SDS011;34713;50.038;20.000;2023-11-21T06:00:44;7.40;;;4.20;;
48897;SDS011;34713;50.038;20.000;2023-11-21T06:03:11;6.00;;;3.80;;
48897;SDS011;34713;50.038;20.000;2023-11-21T06:05:38;6.10;;;4.00;;
48897;SDS011;34713;50.038;20.000;2023-11-21T06:08:05;10.20;;;5.00;;
48897;SDS011;34713;50.038;20.000;2023-11-21T06:10:32;7.80;;;4.60;;
48897;SDS011;34713;50.038;20.000;2023-11-21T06:12:59;5.90;;;3.70;;
48897;SDS011;34713;50.038;20.000;2023-11-21T06:15:25;6.40;;;3.80;;
48897;SDS011;34713;50.038;20.000;2023-11-21T06:17:52;6.60;;;4.60;;
48897;SDS011;34713;50.038;20.000;2023-11-21T06:20:18;6.60;;;3.90;;
48897;SDS011;34713;50.038;20.000;2023-11-21T06:22:46;6.60;;;4.40;;
48897;SDS011;34713;50.038;20.000;2023-11-21T06:25:13;9.10;;;4.90;;
48897;SDS011;34713;50.038;20.000;2023-11-21T06:27:43;7.30;;;4.90;;
48897;SDS011;34713;50.038;20.000;2023-11-21T06:30:11;9.50;;;4.90;;
48897;SDS011;34713;50.038;20.000;2023-11-21T06:32:39;8.30;;;5.20;;
48897;SDS011;34713;50.038;20.000;2023-11-21T06:35:06;6.50;;;4.50;;
48897;SDS011;34713;50.038;20.000;2023-11-21T06:37:34;9.80;;;5.00;;
48897;SDS011;34713;50.038;20.000;2023-11-21T06:40:00;8.80;;;5.50;;
48897;SDS011;34713;50.038;20.000;2023-11-21T06:42:27;9.20;;;5.70;;
48897;SDS011;34713;50.038;20.000;2023-11-21T06:44:55;9.20;;;6.20;;
48897;SDS011;34713;50.038;20.000;2023-11-21T06:47:23;10.80;;;6.30;;
48897;SDS011;34713;50.038;20.000;2023-11-21T06:49:55;10.60;;;6.10;;
48897;SDS011;34713;50.038;20.000;2023-11-21T06:52:22;8.40;;;5.90;;
48897;SDS011;34713;50.038;20.000;2023-11-21T06:54:49;8.80;;;6.00;;
48897;SDS011;34713;50.038;20.000;2023-11-21T06:57:18;11.80;;;6.10;;
48897;SDS011;34713;50.038;20.000;2023-11-21T06:59:45;8.00;;;6.00;;
48897;SDS011;34713;50.038;20.000;2023-11-21T07:02:11;9.30;;;5.50;;
48897;SDS011;34713;50.038;20.000;2023-11-21T07:04:38;10.60;;;6.30;;
48897;SDS011;34713;50.038;20.000;2023-11-21T07:07:04;9.20;;;6.00;;
48897;SDS011;34713;50.038;20.000;2023-11-21T07:09:33;11.80;;;6.20;;
48897;SDS011;34713;50.038;20.000;2023-11-21T07:11:59;11.60;;;5.40;;
48897;SDS011;34713;50.038;20.000;2023-11-21T07:14:26;13.30;;;7.20;;
48897;SDS011;34713;50.038;20.000;2023-11-21T07:16:52;10.70;;;5.90;;
48897;SDS011;34713;50.038;20.000;2023-11-21T07:19:19;13.30;;;6.50;;
48897;SDS011;34713;50.038;20.000;2023-11-21T07:21:46;12.90;;;7.10;;
48897;SDS011;34713;50.038;20.000;2023-11-21T07:24:12;12.90;;;7.10;;
48897;SDS011;34713;50.038;20.000;2023-11-21T07:26:40;13.80;;;8.00;;
48897;SDS011;34713;50.038;20.000;2023-11-21T07:29:06;10.50;;;6.80;;
48897;SDS011;34713;50.038;20.000;2023-11-21T07:31:33;12.90;;;7.30;;
48897;SDS011;34713;50.038;20.000;2023-11-21T07:34:02;12.30;;;7.80;;
48897;SDS011;34713;50.038;20.000;2023-11-21T07:36:29;13.40;;;6.70;;
48897;SDS011;34713;50.038;20.000;2023-11-21T07:38:55;12.00;;;7.30;;
48897;SDS011;34713;50.038;20.000;2023-11-21T07:41:22;11.70;;;7.60;;
48897;SDS011;34713;50.038;20.000;2023-11-21T07:43:48;10.30;;;7.00;;
48897;SDS011;34713;50.038;20.000;2023-11-21T07:46:15;11.70;;;7.00;;
48897;SDS011;34713;50.038;20.000;2023-11-21T07:48:42;12.80;;;7.00;;
48897;SDS011;34713;50.038;20.000;2023-11-21T07:51:09;9.80;;;6.70;;
48897;SDS011;34713;50.038;20.000;2023-11-21T07:53:36;10.00;;;6.60;;
48897;SDS011;34713;50.038;20.000;2023-11-21T07:56:03;11.80;;;7.00;;
48897;SDS011;34713;50.038;20.000;2023-11-21T07:58:31;9.20;;;6.30;;
48897;SDS011;34713;50.038;20.000;2023-11-21T08:00:59;16.80;;;6.70;;
48897;SDS011;34713;50.038;20.000;2023-11-21T08:03:26;9.50;;;6.20;;
48897;SDS011;34713;50.038;20.000;2023-11-21T08:05:53;8.00;;;6.10;;
48897;SDS011;34713;50.038;20.000;2023-11-21T08:08:20;10.50;;;6.50;;
48897;SDS011;34713;50.038;20.000;2023-11-21T08:10:47;10.20;;;6.60;;
48897;SDS011;34713;50.038;20.000;2023-11-21T08:13:14;11.20;;;7.30;;
48897;SDS011;34713;50.038;20.000;2023-11-21T08:15:43;9.50;;;7.00;;
48897;SDS011;34713;50.038;20.000;2023-11-21T08:18:12;10.70;;;7.80;;
48897;SDS011;34713;50.038;20.000;2023-11-21T08:20:41;13.50;;;7.70;;
48897;SDS011;34713;50.038;20.000;2023-11-21T08:23:07;11.60;;;7.20;;
48897;SDS011;34713;50.038;20.000;2023-11-21T08:25:34;10.00;;;7.80;;
48897;SDS011;34713;50.038;20.000;2023-11-21T08:28:01;12.50;;;8.20;;
48897;SDS011;34713;50.038;20.000;2023-11-21T08:30:28;11.30;;;8.90;;
48897;SDS011;34713;50.038;20.000;2023-11-21T08:32:56;13.80;;;9.30;;
48897;SDS011;34713;50.038;20.000;2023-11-21T08:35:24;17.20;;;9.60;;
48897;SDS011;34713;50.038;20.000;2023-11-21T08:37:52;12.90;;;10.20;;
48897;SDS011;34713;50.038;20.000;2023-11-21T08:40:21;15.10;;;11.20;;
48897;SDS011;34713;50.038;20.000;2023-11-21T08:42:48;16.60;;;11.90;;
48897;SDS011;34713;50.038;20.000;2023-11-21T08:45:14;15.80;;;11.60;;
48897;SDS011;34713;50.038;20.000;2023-11-21T08:47:41;15.20;;;10.80;;
48897;SDS011;34713;50.038;20.000;2023-11-21T08:50:10;13.60;;;10.50;;
48897;SDS011;34713;50.038;20.000;2023-11-21T08:52:38;16.80;;;10.70;;
48897;SDS011;34713;50.038;20.000;2023-11-21T08:55:07;16.10;;;11.00;;
48897;SDS011;34713;50.038;20.000;2023-11-21T08:57:34;12.70;;;10.50;;
48897;SDS011;34713;50.038;20.000;2023-11-21T09:00:02;14.60;;;11.00;;
48897;SDS011;34713;50.038;20.000;2023-11-21T09:02:33;13.50;;;10.20;;
48897;SDS011;34713;50.038;20.000;2023-11-21T09:05:05;14.40;;;9.30;;
48897;SDS011;34713;50.038;20.000;2023-11-21T09:07:32;18.00;;;9.90;;
48897;SDS011;34713;50.038;20.000;2023-11-21T09:09:59;15.30;;;9.50;;
48897;SDS011;34713;50.038;20.000;2023-11-21T09:12:25;15.20;;;9.20;;
48897;SDS011;34713;50.038;20.000;2023-11-21T09:14:52;13.70;;;8.60;;
48897;SDS011;34713;50.038;20.000;2023-11-21T09:17:18;13.90;;;8.80;;
48897;SDS011;34713;50.038;20.000;2023-11-21T09:19:45;14.00;;;8.90;;
48897;SDS011;34713;50.038;20.000;2023-11-21T09:22:16;13.60;;;9.20;;
48897;SDS011;34713;50.038;20.000;2023-11-21T09:24:43;13.60;;;8.60;;
48897;SDS011;34713;50.038;20.000;2023-11-21T09:27:09;13.50;;;8.60;;
48897;SDS011;34713;50.038;20.000;2023-11-21T09:29:36;13.30;;;8.10;;
48897;SDS011;34713;50.038;20.000;2023-11-21T09:32:08;13.70;;;8.60;;
48897;SDS011;34713;50.038;20.000;2023-11-21T09:34:34;13.50;;;8.50;;
48897;SDS011;34713;50.038;20.000;2023-11-21T09:37:04;12.70;;;8.50;;
48897;SDS011;34713;50.038;20.000;2023-11-21T09:39:32;12.70;;;8.20;;
48897;SDS011;34713;50.038;20.000;2023-11-21T09:42:36;13.70;;;9.20;;
48897;SDS011;34713;50.038;20.000;2023-11-21T09:47:38;11.70;;;8.20;;
48897;SDS011;34713;50.038;20.000;2023-11-21T09:50:05;13.40;;;8.70;;
48897;SDS011;34713;50.038;20.000;2023-11-21T09:52:44;13.70;;;9.00;;
48897;SDS011;34713;50.038;20.000;2023-11-21T09:55:34;14.40;;;9.00;;
48897;SDS011;34713;50.038;20.000;2023-11-21T09:58:02;16.20;;;8.70;;
48897;SDS011;34713;50.038;20.000;2023-11-21T10:00:29;11.70;;;8.70;;
48897;SDS011;34713;50.038;20.000;2023-11-21T10:02:59;14.40;;;9.40;;
48897;SDS011;34713;50.038;20.000;2023-11-21T10:05:26;14.10;;;9.10;;
48897;SDS011;34713;50.038;20.000;2023-11-21T10:07:53;13.30;;;9.50;;
48897;SDS011;34713;50.038;20.000;2023-11-21T10:10:19;10.90;;;8.00;;
48897;SDS011;34713;50.038;20.000;2023-11-21T10:12:51;13.60;;;8.80;;
48897;SDS011;34713;50.038;20.000;2023-11-21T10:15:21;13.10;;;8.70;;
48897;SDS011;34713;50.038;20.000;2023-11-21T10:17:49;12.30;;;8.30;;
48897;SDS011;34713;50.038;20.000;2023-11-21T10:20:16;13.80;;;8.90;;
48897;SDS011;34713;50.038;20.000;2023-11-21T10:22:43;14.80;;;8.30;;
48897;SDS011;34713;50.038;20.000;2023-11-21T10:25:10;13.10;;;7.60;;
48897;SDS011;34713;50.038;20.000;2023-11-21T10:27:37;13.50;;;8.20;;
48897;SDS011;34713;50.038;20.000;2023-11-21T10:30:07;14.30;;;8.50;;
48897;SDS011;34713;50.038;20.000;2023-11-21T10:32:38;11.10;;;8.80;;
48897;SDS011;34713;50.038;20.000;2023-11-21T10:35:07;13.80;;;8.10;;
48897;SDS011;34713;50.038;20.000;2023-11-21T10:37:36;15.00;;;7.90;;
48897;SDS011;34713;50.038;20.000;2023-11-21T10:40:06;13.30;;;7.40;;
48897;SDS011;34713;50.038;20.000;2023-11-21T10:42:34;11.80;;;7.60;;
48897;SDS011;34713;50.038;20.000;2023-11-21T10:45:00;9.20;;;6.80;;
48897;SDS011;34713;50.038;20.000;2023-11-21T10:47:27;11.70;;;7.40;;
48897;SDS011;34713;50.038;20.000;2023-11-21T10:49:54;10.60;;;6.80;;
48897;SDS011;34713;50.038;20.000;2023-11-21T10:52:20;12.40;;;6.50;;
48897;SDS011;34713;50.038;20.000;2023-11-21T10:54:47;12.70;;;6.60;;
48897;SDS011;34713;50.038;20.000;2023-11-21T10:57:17;10.70;;;6.40;;
48897;SDS011;34713;50.038;20.000;2023-11-21T10:59:47;11.20;;;6.10;;
48897;SDS011;34713;50.038;20.000;2023-11-21T11:02:21;11.10;;;5.70;;
48897;SDS011;34713;50.038;20.000;2023-11-21T11:04:51;9.60;;;6.20;;
48897;SDS011;34713;50.038;20.000;2023-11-21T11:07:18;7.40;;;5.70;;
48897;SDS011;34713;50.038;20.000;2023-11-21T11:09:48;10.50;;;5.40;;
48897;SDS011;34713;50.038;20.000;2023-11-21T11:12:14;9.30;;;5.80;;
48897;SDS011;34713;50.038;20.000;2023-11-21T11:14:41;8.90;;;5.80;;
48897;SDS011;34713;50.038;20.000;2023-11-21T11:17:09;11.30;;;6.40;;
48897;SDS011;34713;50.038;20.000;2023-11-21T11:19:37;11.10;;;6.30;;
48897;SDS011;34713;50.038;20.000;2023-11-21T11:27:31;11.70;;;7.00;;
48897;SDS011;34713;50.038;20.000;2023-11-21T11:30:30;11.20;;;7.00;;
48897;SDS011;34713;50.038;20.000;2023-11-21T11:33:10;13.60;;;8.10;;
48897;SDS011;34713;50.038;20.000;2023-11-21T11:38:32;12.70;;;6.40;;
48897;SDS011;34713;50.038;20.000;2023-11-21T11:41:02;9.90;;;6.90;;
48897;SDS011;34713;50.038;20.000;2023-11-21T11:43:32;12.20;;;6.80;;
48897;SDS011;34713;50.038;20.000;2023-11-21T11:46:03;13.70;;;6.80;;
48897;SDS011;34713;50.038;20.000;2023-11-21T11:48:30;11.80;;;7.00;;
48897;SDS011;34713;50.038;20.000;2023-11-21T11:51:05;10.90;;;7.40;;
48897;SDS011;34713;50.038;20.000;2023-11-21T11:53:35;12.30;;;6.70;;
48897;SDS011;34713;50.038;20.000;2023-11-21T11:56:25;10.60;;;5.70;;
48897;SDS011;34713;50.038;20.000;2023-11-21T11:59:04;8.10;;;5.90;;
48897;SDS011;34713;50.038;20.000;2023-11-21T12:01:33;7.90;;;5.80;;
48897;SDS011;34713;50.038;20.000;2023-11-21T12:04:46;10.70;;;6.60;;
48897;SDS011;34713;50.038;20.000;2023-11-21T12:06:52;10.40;;;6.10;;
48897;SDS011;34713;50.038;20.000;2023-11-21T12:09:20;12.80;;;6.70;;
48897;SDS011;34713;50.038;20.000;2023-11-21T12:11:50;10.50;;;5.80;;
48897;SDS011;34713;50.038;20.000;2023-11-21T12:14:17;9.80;;;5.80;;
48897;SDS011;34713;50.038;20.000;2023-11-21T12:16:44;10.10;;;5.80;;
48897;SDS011;34713;50.038;20.000;2023-11-21T12:19:11;9.20;;;5.40;;
48897;SDS011;34713;50.038;20.000;2023-11-21T12:21:39;8.70;;;5.40;;
48897;SDS011;34713;50.038;20.000;2023-11-21T12:24:09;9.80;;;5.10;;
48897;SDS011;34713;50.038;20.000;2023-11-21T12:26:35;8.60;;;5.10;;
48897;SDS011;34713;50.038;20.000;2023-11-21T12:29:02;8.90;;;4.90;;
48897;SDS011;34713;50.038;20.000;2023-11-21T12:31:30;6.90;;;4.60;;
48897;SDS011;34713;50.038;20.000;2023-11-21T12:33:57;7.90;;;4.30;;
48897;SDS011;34713;50.038;20.000;2023-11-21T12:36:24;9.00;;;5.00;;
48897;SDS011;34713;50.038;20.000;2023-11-21T12:38:51;9.30;;;4.90;;
48897;SDS011;34713;50.038;20.000;2023-11-21T12:41:18;8.00;;;4.60;;
48897;SDS011;34713;50.038;20.000;2023-11-21T12:43:44;8.00;;;4.80;;
48897;SDS011;34713;50.038;20.000;2023-11-21T12:46:11;7.50;;;4.40;;
48897;SDS011;34713;50.038;20.000;2023-11-21T12:48:37;11.20;;;5.20;;
48897;SDS011;34713;50.038;20.000;2023-11-21T12:51:10;8.20;;;5.20;;
48897;SDS011;34713;50.038;20.000;2023-11-21T12:53:38;7.90;;;4.50;;
48897;SDS011;34713;50.038;20.000;2023-11-21T12:56:09;10.80;;;5.60;;
48897;SDS011;34713;50.038;20.000;2023-11-21T12:58:37;8.00;;;5.40;;
48897;SDS011;34713;50.038;20.000;2023-11-21T13:01:06;9.60;;;5.60;;
48897;SDS011;34713;50.038;20.000;2023-11-21T13:03:38;9.10;;;5.10;;
48897;SDS011;34713;50.038;20.000;2023-11-21T13:06:06;9.10;;;5.80;;
48897;SDS011;34713;50.038;20.000;2023-11-21T13:08:34;10.00;;;5.30;;
48897;SDS011;34713;50.038;20.000;2023-11-21T13:11:01;9.60;;;5.00;;
48897;SDS011;34713;50.038;20.000;2023-11-21T13:13:29;8.50;;;5.50;;
48897;SDS011;34713;50.038;20.000;2023-11-21T13:15:56;12.70;;;5.80;;
48897;SDS011;34713;50.038;20.000;2023-11-21T13:18:24;10.20;;;5.70;;
48897;SDS011;34713;50.038;20.000;2023-11-21T13:20:52;8.70;;;5.40;;
48897;SDS011;34713;50.038;20.000;2023-11-21T13:23:21;10.60;;;5.60;;
48897;SDS011;34713;50.038;20.000;2023-11-21T13:25:49;11.20;;;5.90;;
48897;SDS011;34713;50.038;20.000;2023-11-21T13:28:16;8.50;;;5.90;;
48897;SDS011;34713;50.038;20.000;2023-11-21T13:30:44;10.00;;;6.10;;
48897;SDS011;34713;50.038;20.000;2023-11-21T13:33:11;14.20;;;6.00;;
48897;SDS011;34713;50.038;20.000;2023-11-21T13:35:44;9.80;;;6.10;;
48897;SDS011;34713;50.038;20.000;2023-11-21T13:38:19;9.30;;;5.90;;
48897;SDS011;34713;50.038;20.000;2023-11-21T13:40:50;9.70;;;6.00;;
48897;SDS011;34713;50.038;20.000;2023-11-21T13:43:23;11.70;;;6.30;;
48897;SDS011;34713;50.038;20.000;2023-11-21T13:45:52;9.70;;;5.50;;
48897;SDS011;34713;50.038;20.000;2023-11-21T13:48:27;11.50;;;6.10;;
48897;SDS011;34713;50.038;20.000;2023-11-21T13:51:09;13.20;;;6.80;;
48897;SDS011;34713;50.038;20.000;2023-11-21T13:53:46;12.70;;;6.50;;
48897;SDS011;34713;50.038;20.000;2023-11-21T13:56:16;11.20;;;6.00;;
48897;SDS011;34713;50.038;20.000;2023-11-21T13:58:50;8.80;;;6.00;;
48897;SDS011;34713;50.038;20.000;2023-11-21T14:01:21;10.50;;;5.90;;
48897;SDS011;34713;50.038;20.000;2023-11-21T14:04:01;10.40;;;5.80;;
48897;SDS011;34713;50.038;20.000;2023-11-21T14:06:55;8.70;;;5.40;;
48897;SDS011;34713;50.038;20.000;2023-11-21T14:09:22;10.10;;;6.00;;
48897;SDS011;34713;50.038;20.000;2023-11-21T14:14:22;9.20;;;5.30;;
48897;SDS011;34713;50.038;20.000;2023-11-21T14:16:51;8.40;;;5.20;;
48897;SDS011;34713;50.038;20.000;2023-11-21T14:19:25;7.00;;;4.90;;
48897;SDS011;34713;50.038;20.000;2023-11-21T14:21:58;12.50;;;5.20;;
48897;SDS011;34713;50.038;20.000;2023-11-21T14:24:24;9.00;;;5.20;;
48897;SDS011;34713;50.038;20.000;2023-11-21T14:26:51;7.70;;;5.40;;
48897;SDS011;34713;50.038;20.000;2023-11-21T14:29:18;8.20;;;4.80;;
48897;SDS011;34713;50.038;20.000;2023-11-21T14:31:49;8.40;;;4.70;;
48897;SDS011;34713;50.038;20.000;2023-11-21T14:34:17;8.00;;;5.00;;
48897;SDS011;34713;50.038;20.000;2023-11-21T14:36:44;8.70;;;4.60;;
48897;SDS011;34713;50.038;20.000;2023-11-21T14:39:11;7.20;;;4.60;;
48897;SDS011;34713;50.038;20.000;2023-11-21T14:41:49;10.40;;;4.60;;
48897;SDS011;34713;50.038;20.000;2023-11-21T14:44:16;7.70;;;4.70;;
48897;SDS011;34713;50.038;20.000;2023-11-21T14:46:43;7.60;;;4.50;;
48897;SDS011;34713;50.038;20.000;2023-11-21T14:49:16;6.90;;;4.30;;